02/05/05 - 21h:58mDenunciar

Dassault Mirage III RS

Imagem de GoatWorks, retirada do site

Jetphotos.net.





METAR SBPB 030100Z 19004KT 9999 FEW017 BKN300 26/25 Q1014=

Comentários (1)

arteaviao
1. arteaviao 3/05/05 15:58

I want to tell you that this photo is perfect!!!!!!!!!!

Fotos postadas a mais de 15 dias não podem receber comentários.